sensor_id;sensor_type;location;lat;lon;timestamp;pressure;altitude;pressure_sealevel;temperature;humidity
70046;BME280;57385;41.832;23.494;2022-09-09T00:00:16;91426.81;;;16.86;68.98
70046;BME280;57385;41.832;23.494;2022-09-09T00:00:38;91427.03;;;16.85;68.89
70046;BME280;57385;41.832;23.494;2022-09-09T00:01:19;91428.59;;;16.86;69.06
70046;BME280;57385;41.832;23.494;2022-09-09T00:02:20;91418.19;;;16.81;68.79
70046;BME280;57385;41.832;23.494;2022-09-09T00:02:43;91421.56;;;16.81;68.88
70046;BME280;57385;41.832;23.494;2022-09-09T00:03:27;91424.66;;;16.78;69.03
70046;BME280;57385;41.832;23.494;2022-09-09T00:04:29;91420.84;;;16.86;68.98
70046;BME280;57385;41.832;23.494;2022-09-09T00:04:59;91425.19;;;16.80;68.80
70046;BME280;57385;41.832;23.494;2022-09-09T00:05:31;91429.09;;;16.83;68.96
70046;BME280;57385;41.832;23.494;2022-09-09T00:06:05;91417.16;;;16.82;69.03
70046;BME280;57385;41.832;23.494;2022-09-09T00:06:30;91423.44;;;16.86;68.47
70046;BME280;57385;41.832;23.494;2022-09-09T00:07:45;91422.34;;;16.82;68.85
70046;BME280;57385;41.832;23.494;2022-09-09T00:08:13;91420.53;;;16.82;69.14
70046;BME280;57385;41.832;23.494;2022-09-09T00:09:08;91422.88;;;16.84;69.04
70046;BME280;57385;41.832;23.494;2022-09-09T00:09:49;91409.88;;;16.74;69.27
70046;BME280;57385;41.832;23.494;2022-09-09T00:10:30;91416.38;;;16.81;68.85
70046;BME280;57385;41.832;23.494;2022-09-09T00:10:56;91411.19;;;16.76;69.10
70046;BME280;57385;41.832;23.494;2022-09-09T00:11:43;91407.28;;;16.74;69.06
70046;BME280;57385;41.832;23.494;2022-09-09T00:12:29;91417.69;;;16.79;69.65
70046;BME280;57385;41.832;23.494;2022-09-09T00:13:38;91422.31;;;16.77;69.11
70046;BME280;57385;41.832;23.494;2022-09-09T00:14:00;91424.41;;;16.80;69.36
70046;BME280;57385;41.832;23.494;2022-09-09T00:15:17;91424.13;;;16.76;69.36
70046;BME280;57385;41.832;23.494;2022-09-09T00:16:19;91423.09;;;16.72;69.25
70046;BME280;57385;41.832;23.494;2022-09-09T00:16:46;91417.84;;;16.67;69.30
70046;BME280;57385;41.832;23.494;2022-09-09T00:17:18;91418.38;;;16.69;69.42
70046;BME280;57385;41.832;23.494;2022-09-09T00:17:56;91428.50;;;16.71;69.56
70046;BME280;57385;41.832;23.494;2022-09-09T00:18:51;91424.13;;;16.76;69.25
70046;BME280;57385;41.832;23.494;2022-09-09T00:19:24;91413.19;;;16.69;69.24
70046;BME280;57385;41.832;23.494;2022-09-09T00:19:56;91419.22;;;16.75;69.98
70046;BME280;57385;41.832;23.494;2022-09-09T00:20:57;91419.22;;;16.75;69.22
70046;BME280;57385;41.832;23.494;2022-09-09T00:21:18;91409.06;;;16.68;69.26
70046;BME280;57385;41.832;23.494;2022-09-09T00:21:42;91418.69;;;16.73;69.30
70046;BME280;57385;41.832;23.494;2022-09-09T00:22:18;91420.19;;;16.69;69.08
70046;BME280;57385;41.832;23.494;2022-09-09T00:22:41;91416.03;;;16.68;69.08
70046;BME280;57385;41.832;23.494;2022-09-09T00:23:48;91419.16;;;16.70;69.18
70046;BME280;57385;41.832;23.494;2022-09-09T00:24:28;91407.72;;;16.66;69.17
70046;BME280;57385;41.832;23.494;2022-09-09T00:24:51;91420.72;;;16.71;69.38
70046;BME280;57385;41.832;23.494;2022-09-09T00:25:16;91405.63;;;16.63;69.81
70046;BME280;57385;41.832;23.494;2022-09-09T00:25:45;91414.75;;;16.70;69.87
70046;BME280;57385;41.832;23.494;2022-09-09T00:26:44;91407.19;;;16.64;69.57
70046;BME280;57385;41.832;23.494;2022-09-09T00:27:10;91415.00;;;16.69;69.80
70046;BME280;57385;41.832;23.494;2022-09-09T00:27:58;91410.81;;;16.63;69.87
70046;BME280;57385;41.832;23.494;2022-09-09T00:28:20;91408.75;;;16.65;69.67
70046;BME280;57385;41.832;23.494;2022-09-09T00:28:48;91422.22;;;16.67;69.71
70046;BME280;57385;41.832;23.494;2022-09-09T00:29:57;91418.31;;;16.59;69.45
70046;BME280;57385;41.832;23.494;2022-09-09T00:30:27;91418.59;;;16.63;69.67
70046;BME280;57385;41.832;23.494;2022-09-09T00:30:48;91418.59;;;16.63;69.75
70046;BME280;57385;41.832;23.494;2022-09-09T00:31:21;91419.38;;;16.63;69.59
70046;BME280;57385;41.832;23.494;2022-09-09T00:31:42;91411.84;;;16.62;69.80
70046;BME280;57385;41.832;23.494;2022-09-09T00:32:11;91419.88;;;16.65;69.60
70046;BME280;57385;41.832;23.494;2022-09-09T00:32:33;91418.84;;;16.61;69.49
70046;BME280;57385;41.832;23.494;2022-09-09T00:33:01;91423.50;;;16.64;69.43
70046;BME280;57385;41.832;23.494;2022-09-09T00:33:23;91418.06;;;16.61;69.45
70046;BME280;57385;41.832;23.494;2022-09-09T00:33:43;91415.94;;;16.57;69.50
70046;BME280;57385;41.832;23.494;2022-09-09T00:34:11;91417.75;;;16.57;69.74
70046;BME280;57385;41.832;23.494;2022-09-09T00:34:32;91411.53;;;16.53;69.70
70046;BME280;57385;41.832;23.494;2022-09-09T00:35:12;91401.91;;;16.48;69.67
70046;BME280;57385;41.832;23.494;2022-09-09T00:35:38;91421.69;;;16.59;69.67
70046;BME280;57385;41.832;23.494;2022-09-09T00:36:01;91427.88;;;16.58;69.77
70046;BME280;57385;41.832;23.494;2022-09-09T00:36:23;91418.78;;;16.56;69.33
70046;BME280;57385;41.832;23.494;2022-09-09T00:36:45;91418.53;;;16.57;69.31
70046;BME280;57385;41.832;23.494;2022-09-09T00:37:05;91418.78;;;16.56;69.69
70046;BME280;57385;41.832;23.494;2022-09-09T00:37:25;91428.41;;;16.61;69.33
70046;BME280;57385;41.832;23.494;2022-09-09T00:37:47;91408.41;;;16.51;69.35
70046;BME280;57385;41.832;23.494;2022-09-09T00:38:25;91425.81;;;16.61;69.49
70046;BME280;57385;41.832;23.494;2022-09-09T00:39:00;91425.28;;;16.58;69.21
70046;BME280;57385;41.832;23.494;2022-09-09T00:39:42;91421.69;;;16.59;69.35
70046;BME280;57385;41.832;23.494;2022-09-09T00:40:13;91426.84;;;16.59;69.29
70046;BME280;57385;41.832;23.494;2022-09-09T00:41:22;91425.28;;;16.58;69.67
70046;BME280;57385;41.832;23.494;2022-09-09T00:42:01;91429.44;;;16.59;69.47
70046;BME280;57385;41.832;23.494;2022-09-09T00:42:29;91426.56;;;16.56;69.58
70046;BME280;57385;41.832;23.494;2022-09-09T00:42:59;91423.97;;;16.56;69.39
70046;BME280;57385;41.832;23.494;2022-09-09T00:43:31;91431.47;;;16.57;69.49
70046;BME280;57385;41.832;23.494;2022-09-09T00:44:03;91420.84;;;16.54;69.66
70046;BME280;57385;41.832;23.494;2022-09-09T00:44:32;91439.50;;;16.56;69.42
70046;BME280;57385;41.832;23.494;2022-09-09T00:47:44;91431.97;;;16.54;69.78
70046;BME280;57385;41.832;23.494;2022-09-09T00:48:10;91425.22;;;16.48;69.72
70046;BME280;57385;41.832;23.494;2022-09-09T00:48:40;91436.63;;;16.52;69.85
70046;BME280;57385;41.832;23.494;2022-09-09T00:49:19;91429.63;;;16.53;69.80
70046;BME280;57385;41.832;23.494;2022-09-09T00:50:03;91434.03;;;16.52;69.74
70046;BME280;57385;41.832;23.494;2022-09-09T00:50:55;91431.69;;;16.51;69.75
70046;BME280;57385;41.832;23.494;2022-09-09T00:51:22;91420.03;;;16.48;70.10
70046;BME280;57385;41.832;23.494;2022-09-09T00:52:30;91421.25;;;16.36;70.80
70046;BME280;57385;41.832;23.494;2022-09-09T00:53:10;91421.50;;;16.34;70.88
70046;BME280;57385;41.832;23.494;2022-09-09T00:55:16;91418.16;;;16.39;70.49
70046;BME280;57385;41.832;23.494;2022-09-09T00:56:19;91413.22;;;16.37;70.28
70046;BME280;57385;41.832;23.494;2022-09-09T00:56:53;91419.47;;;16.41;70.24
70046;BME280;57385;41.832;23.494;2022-09-09T00:57:31;91413.50;;;16.41;70.57
70046;BME280;57385;41.832;23.494;2022-09-09T00:57:52;91403.38;;;16.34;nan
70046;BME280;57385;41.832;23.494;2022-09-09T00:58:12;91412.72;;;16.40;70.18
70046;BME280;57385;41.832;23.494;2022-09-09T00:58:31;91407.25;;;16.37;69.99
70046;BME280;57385;41.832;23.494;2022-09-09T00:59:03;91411.16;;;16.39;70.12
70046;BME280;57385;41.832;23.494;2022-09-09T00:59:50;91414.81;;;16.43;70.07
70046;BME280;57385;41.832;23.494;2022-09-09T01:00:44;91418.44;;;16.42;70.25
70046;BME280;57385;41.832;23.494;2022-09-09T01:01:11;91405.47;;;16.37;70.25
70046;BME280;57385;41.832;23.494;2022-09-09T01:01:31;91407.00;;;16.38;70.00
70046;BME280;57385;41.832;23.494;2022-09-09T01:01:52;91413.50;;;16.41;70.40
70046;BME280;57385;41.832;23.494;2022-09-09T01:02:28;91404.69;;;16.37;70.23
70046;BME280;57385;41.832;23.494;2022-09-09T01:03:51;91410.91;;;16.41;70.41
70046;BME280;57385;41.832;23.494;2022-09-09T01:04:21;91410.38;;;16.39;70.09
70046;BME280;57385;41.832;23.494;2022-09-09T01:04:44;91412.44;;;16.37;70.38
70046;BME280;57385;41.832;23.494;2022-09-09T01:05:10;91415.81;;;16.37;70.11
70046;BME280;57385;41.832;23.494;2022-09-09T01:06:36;91412.97;;;16.39;70.34
70046;BME280;57385;41.832;23.494;2022-09-09T01:07:04;91403.63;;;16.33;70.33
70046;BME280;57385;41.832;23.494;2022-09-09T01:07:26;91408.53;;;16.34;70.37
70046;BME280;57385;41.832;23.494;2022-09-09T01:07:47;91419.97;;;16.38;70.08
70046;BME280;57385;41.832;23.494;2022-09-09T01:10:35;91407.25;;;16.32;70.44
70046;BME280;57385;41.832;23.494;2022-09-09T01:10:59;91415.81;;;16.37;70.71
70046;BME280;57385;41.832;23.494;2022-09-09T01:11:23;91410.06;;;16.30;70.48
70046;BME280;57385;41.832;23.494;2022-09-09T01:12:40;91409.06;;;16.31;70.61
70046;BME280;57385;41.832;23.494;2022-09-09T01:13:02;91412.16;;;16.33;70.92
70046;BME280;57385;41.832;23.494;2022-09-09T01:13:35;91417.09;;;16.35;70.74
70046;BME280;57385;41.832;23.494;2022-09-09T01:14:13;91413.66;;;16.29;71.06
70046;BME280;57385;41.832;23.494;2022-09-09T01:15:03;91414.13;;;16.21;71.38
70046;BME280;57385;41.832;23.494;2022-09-09T01:15:29;91414.41;;;16.24;71.18
70046;BME280;57385;41.832;23.494;2022-09-09T01:15:50;91410.78;;;16.20;71.13
70046;BME280;57385;41.832;23.494;2022-09-09T01:16:10;91414.94;;;16.26;71.04
70046;BME280;57385;41.832;23.494;2022-09-09T01:16:31;91412.09;;;16.28;71.27
70046;BME280;57385;41.832;23.494;2022-09-09T01:16:54;91403.25;;;16.19;70.97
70046;BME280;57385;41.832;23.494;2022-09-09T01:17:30;91419.09;;;16.27;71.17
70046;BME280;57385;41.832;23.494;2022-09-09T01:18:06;91402.16;;;16.15;71.53
70046;BME280;57385;41.832;23.494;2022-09-09T01:18:36;91404.03;;;16.19;71.46
70046;BME280;57385;41.832;23.494;2022-09-09T01:18:58;91410.00;;;16.20;71.15
70046;BME280;57385;41.832;23.494;2022-09-09T01:19:27;91419.34;;;16.26;71.23
70046;BME280;57385;41.832;23.494;2022-09-09T01:20:13;91409.75;;;16.21;71.29
70046;BME280;57385;41.832;23.494;2022-09-09T01:20:48;91411.56;;;16.21;71.39
70046;BME280;57385;41.832;23.494;2022-09-09T01:21:35;91413.28;;;16.15;71.82
70046;BME280;57385;41.832;23.494;2022-09-09T01:22:06;91416.66;;;16.16;71.86
70046;BME280;57385;41.832;23.494;2022-09-09T01:24:27;91415.16;;;16.20;71.15
70046;BME280;57385;41.832;23.494;2022-09-09T01:26:39;91409.16;;;16.14;71.82
70046;BME280;57385;41.832;23.494;2022-09-09T01:27:06;91401.34;;;16.09;71.62
70046;BME280;57385;41.832;23.494;2022-09-09T01:27:26;91405.25;;;16.12;71.72
70046;BME280;57385;41.832;23.494;2022-09-09T01:27:48;91410.47;;;16.17;71.43
70046;BME280;57385;41.832;23.494;2022-09-09T01:28:13;91410.47;;;16.17;71.12
70046;BME280;57385;41.832;23.494;2022-09-09T01:28:36;91403.44;;;16.12;71.11
70046;BME280;57385;41.832;23.494;2022-09-09T01:29:01;91405.00;;;16.13;71.44
70046;BME280;57385;41.832;23.494;2022-09-09T01:29:26;91390.72;;;16.06;71.39
70046;BME280;57385;41.832;23.494;2022-09-09T01:29:45;91398.03;;;16.14;71.25
70046;BME280;57385;41.832;23.494;2022-09-09T01:30:11;91398.53;;;16.11;71.61
70046;BME280;57385;41.832;23.494;2022-09-09T01:30:37;91400.91;;;16.17;71.15
70046;BME280;57385;41.832;23.494;2022-09-09T01:30:57;91386.88;;;16.08;71.23
70046;BME280;57385;41.832;23.494;2022-09-09T01:31:39;91399.34;;;16.16;71.37
70046;BME280;57385;41.832;23.494;2022-09-09T01:32:02;91400.38;;;16.15;71.23
70046;BME280;57385;41.832;23.494;2022-09-09T01:32:59;91398.56;;;16.16;70.93
70046;BME280;57385;41.832;23.494;2022-09-09T01:33:18;91401.38;;;16.14;71.24
70046;BME280;57385;41.832;23.494;2022-09-09T01:33:38;91395.94;;;16.11;71.36
70046;BME280;57385;41.832;23.494;2022-09-09T01:33:58;91404.22;;;16.13;71.33
70046;BME280;57385;41.832;23.494;2022-09-09T01:34:18;91407.88;;;16.17;71.22
70046;BME280;57385;41.832;23.494;2022-09-09T01:34:39;91393.88;;;16.13;71.16
70046;BME280;57385;41.832;23.494;2022-09-09T01:34:59;91409.16;;;16.14;71.39
70046;BME280;57385;41.832;23.494;2022-09-09T01:35:52;91406.88;;;16.18;71.11
70046;BME280;57385;41.832;23.494;2022-09-09T01:36:39;91399.84;;;16.13;71.09
70046;BME280;57385;41.832;23.494;2022-09-09T01:37:03;91400.13;;;16.17;71.26
70046;BME280;57385;41.832;23.494;2022-09-09T01:37:24;91395.94;;;16.11;71.34
70046;BME280;57385;41.832;23.494;2022-09-09T01:37:44;91394.66;;;16.13;71.24
70046;BME280;57385;41.832;23.494;2022-09-09T01:38:04;91407.88;;;16.17;71.22
70046;BME280;57385;41.832;23.494;2022-09-09T01:38:25;91401.13;;;16.16;71.25
70046;BME280;57385;41.832;23.494;2022-09-09T01:38:46;91391.78;;;16.10;71.23
70046;BME280;57385;41.832;23.494;2022-09-09T01:39:05;91400.38;;;16.15;70.96
70046;BME280;57385;41.832;23.494;2022-09-09T01:39:26;91400.63;;;16.14;71.04
70046;BME280;57385;41.832;23.494;2022-09-09T01:39:53;91403.72;;;16.16;70.96
70046;BME280;57385;41.832;23.494;2022-09-09T01:40:12;91398.28;;;16.12;70.98
70046;BME280;57385;41.832;23.494;2022-09-09T01:40:32;91394.38;;;16.10;71.01
70046;BME280;57385;41.832;23.494;2022-09-09T01:40:53;91404.50;;;16.16;71.00
70046;BME280;57385;41.832;23.494;2022-09-09T01:41:35;91412.06;;;16.18;71.05
70046;BME280;57385;41.832;23.494;2022-09-09T01:42:03;91412.81;;;16.18;70.90
70046;BME280;57385;41.832;23.494;2022-09-09T01:42:24;91399.84;;;16.13;71.16
70046;BME280;57385;41.832;23.494;2022-09-09T01:42:43;91399.84;;;16.13;71.32
70046;BME280;57385;41.832;23.494;2022-09-09T01:43:03;91399.81;;;16.08;71.04
70046;BME280;57385;41.832;23.494;2022-09-09T01:43:24;91415.41;;;16.18;70.95
70046;BME280;57385;41.832;23.494;2022-09-09T01:43:44;91408.38;;;16.14;71.17
70046;BME280;57385;41.832;23.494;2022-09-09T01:44:05;91399.84;;;16.13;71.16
70046;BME280;57385;41.832;23.494;2022-09-09T01:44:27;91402.66;;;16.12;70.70
70046;BME280;57385;41.832;23.494;2022-09-09T01:44:48;91407.06;;;16.11;71.38
70046;BME280;57385;41.832;23.494;2022-09-09T01:45:08;91405.00;;;16.13;71.13
70046;BME280;57385;41.832;23.494;2022-09-09T01:45:28;91396.44;;;16.08;71.18
70046;BME280;57385;41.832;23.494;2022-09-09T01:45:49;91406.88;;;16.18;71.04
70046;BME280;57385;41.832;23.494;2022-09-09T01:46:11;91394.88;;;16.07;70.96
70046;BME280;57385;41.832;23.494;2022-09-09T01:46:32;91390.47;;;16.07;70.95
70046;BME280;57385;41.832;23.494;2022-09-09T01:46:53;91394.09;;;16.06;70.95
70046;BME280;57385;41.832;23.494;2022-09-09T01:47:15;91407.34;;;16.15;71.29
70046;BME280;57385;41.832;23.494;2022-09-09T01:48:10;91396.19;;;16.09;71.14
70046;BME280;57385;41.832;23.494;2022-09-09T01:48:36;91405.78;;;16.14;71.13
70046;BME280;57385;41.832;23.494;2022-09-09T01:49:02;91413.06;;;16.17;70.93
70046;BME280;57385;41.832;23.494;2022-09-09T01:49:23;91399.06;;;16.13;71.20
70046;BME280;57385;41.832;23.494;2022-09-09T01:49:43;91403.19;;;16.14;70.83
70046;BME280;57385;41.832;23.494;2022-09-09T01:50:13;91414.84;;;16.16;71.25
70046;BME280;57385;41.832;23.494;2022-09-09T01:50:34;91411.28;;;16.17;71.26
70046;BME280;57385;41.832;23.494;2022-09-09T01:50:53;91407.34;;;16.15;71.21
70046;BME280;57385;41.832;23.494;2022-09-09T01:51:13;91407.34;;;16.15;71.33
70046;BME280;57385;41.832;23.494;2022-09-09T01:51:33;91389.72;;;16.12;71.22
70046;BME280;57385;41.832;23.494;2022-09-09T01:51:57;91400.34;;;16.10;71.21
70046;BME280;57385;41.832;23.494;2022-09-09T01:52:27;91396.97;;;16.10;71.54
70046;BME280;57385;41.832;23.494;2022-09-09T01:52:50;91398.25;;;16.07;71.25
70046;BME280;57385;41.832;23.494;2022-09-09T01:53:15;91403.94;;;16.09;71.34
70046;BME280;57385;41.832;23.494;2022-09-09T01:53:37;91393.34;;;16.11;71.45
70046;BME280;57385;41.832;23.494;2022-09-09T01:53:59;91398.28;;;16.12;71.19
70046;BME280;57385;41.832;23.494;2022-09-09T01:54:23;91397.75;;;16.10;71.29
70046;BME280;57385;41.832;23.494;2022-09-09T01:54:43;91391.50;;;16.06;71.46
70046;BME280;57385;41.832;23.494;2022-09-09T01:55:08;91406.03;;;16.12;71.43
70046;BME280;57385;41.832;23.494;2022-09-09T01:55:37;91396.44;;;16.08;71.16
70046;BME280;57385;41.832;23.494;2022-09-09T01:58:08;91407.06;;;16.11;71.38
70046;BME280;57385;41.832;23.494;2022-09-09T02:00:07;91405.50;;;16.10;71.38
70046;BME280;57385;41.832;23.494;2022-09-09T02:00:41;91399.53;;;16.05;71.36
70046;BME280;57385;41.832;23.494;2022-09-09T02:03:09;91407.31;;;16.10;71.15
70046;BME280;57385;41.832;23.494;2022-09-09T02:03:44;91395.59;;;16.02;71.42
70046;BME280;57385;41.832;23.494;2022-09-09T02:04:50;91401.09;;;16.11;71.51
70046;BME280;57385;41.832;23.494;2022-09-09T02:05:38;91407.31;;;16.10;71.39
70046;BME280;57385;41.832;23.494;2022-09-09T02:06:55;91408.34;;;16.09;71.56
70046;BME280;57385;41.832;23.494;2022-09-09T02:07:40;91401.53;;;16.03;71.48
70046;BME280;57385;41.832;23.494;2022-09-09T02:08:23;91400.53;;;16.04;71.28
70046;BME280;57385;41.832;23.494;2022-09-09T02:08:55;91408.31;;;16.04;71.43
70046;BME280;57385;41.832;23.494;2022-09-09T02:09:17;91391.16;;;15.97;71.53
70046;BME280;57385;41.832;23.494;2022-09-09T02:09:40;91398.97;;;16.03;71.47
70046;BME280;57385;41.832;23.494;2022-09-09T02:10:09;91409.31;;;16.03;71.32
70046;BME280;57385;41.832;23.494;2022-09-09T02:10:45;91403.34;;;16.02;71.45
70046;BME280;57385;41.832;23.494;2022-09-09T02:11:15;91400.00;;;16.02;71.20
70046;BME280;57385;41.832;23.494;2022-09-09T02:11:47;91397.38;;;15.96;71.37
70046;BME280;57385;41.832;23.494;2022-09-09T02:12:18;91396.63;;;16.01;71.06
70046;BME280;57385;41.832;23.494;2022-09-09T02:12:55;91401.00;;;16.00;71.04
70046;BME280;57385;41.832;23.494;2022-09-09T02:13:21;91411.44;;;16.06;71.30
70046;BME280;57385;41.832;23.494;2022-09-09T02:13:44;91407.03;;;16.06;71.23
70046;BME280;57385;41.832;23.494;2022-09-09T02:14:10;91407.28;;;16.05;71.24
70046;BME280;57385;41.832;23.494;2022-09-09T02:14:39;91377.59;;;15.85;71.17
70046;BME280;57385;41.832;23.494;2022-09-09T02:15:09;91397.66;;;16.00;71.18
70046;BME280;57385;41.832;23.494;2022-09-09T02:16:38;91406.19;;;16.00;71.34
70046;BME280;57385;41.832;23.494;2022-09-09T02:17:08;91388.78;;;15.91;71.29
70046;BME280;57385;41.832;23.494;2022-09-09T02:17:46;91405.66;;;15.98;71.67
70046;BME280;57385;41.832;23.494;2022-09-09T02:18:12;91394.50;;;15.93;71.66
70046;BME280;57385;41.832;23.494;2022-09-09T02:19:19;91403.84;;;15.99;71.51
70046;BME280;57385;41.832;23.494;2022-09-09T02:19:44;91403.81;;;15.94;71.43
70046;BME280;57385;41.832;23.494;2022-09-09T02:20:14;91402.28;;;15.98;71.38
70046;BME280;57385;41.832;23.494;2022-09-09T02:20:39;91407.72;;;15.96;71.57
70046;BME280;57385;41.832;23.494;2022-09-09T02:21:02;91407.97;;;15.95;71.50
70046;BME280;57385;41.832;23.494;2022-09-09T02:21:23;91401.22;;;15.94;71.39
70046;BME280;57385;41.832;23.494;2022-09-09T02:21:44;91403.06;;;15.98;71.62
70046;BME280;57385;41.832;23.494;2022-09-09T02:22:05;91407.22;;;15.99;71.28
70046;BME280;57385;41.832;23.494;2022-09-09T02:22:26;91399.44;;;15.94;71.28
70046;BME280;57385;41.832;23.494;2022-09-09T02:22:49;91398.41;;;15.95;71.72
70046;BME280;57385;41.832;23.494;2022-09-09T02:23:12;91398.91;;;15.92;71.80
70046;BME280;57385;41.832;23.494;2022-09-09T02:23:33;91408.75;;;15.95;71.67
70046;BME280;57385;41.832;23.494;2022-09-09T02:23:59;91375.78;;;15.81;71.73
70046;BME280;57385;41.832;23.494;2022-09-09T02:24:22;91405.91;;;15.97;71.84
70046;BME280;57385;41.832;23.494;2022-09-09T02:24:52;91391.84;;;15.88;71.37
70046;BME280;57385;41.832;23.494;2022-09-09T02:25:20;91402.78;;;15.95;72.11
70046;BME280;57385;41.832;23.494;2022-09-09T02:25:42;91386.69;;;15.88;71.83
70046;BME280;57385;41.832;23.494;2022-09-09T02:26:12;91397.88;;;15.93;71.95
70046;BME280;57385;41.832;23.494;2022-09-09T02:26:34;91399.72;;;15.98;71.94
70046;BME280;57385;41.832;23.494;2022-09-09T02:26:59;91396.06;;;15.94;72.47
70046;BME280;57385;41.832;23.494;2022-09-09T02:27:22;91383.28;;;15.82;73.08
70046;BME280;57385;41.832;23.494;2022-09-09T02:27:43;91402.97;;;15.88;73.60
70046;BME280;57385;41.832;23.494;2022-09-09T02:28:06;91403.47;;;15.85;73.93
70046;BME280;57385;41.832;23.494;2022-09-09T02:28:28;91382.75;;;15.80;73.29
70046;BME280;57385;41.832;23.494;2022-09-09T02:28:50;91405.09;;;15.91;73.04
70046;BME280;57385;41.832;23.494;2022-09-09T02:29:25;91390.78;;;15.84;72.75
70046;BME280;57385;41.832;23.494;2022-09-09T02:29:45;91400.94;;;15.90;72.84
70046;BME280;57385;41.832;23.494;2022-09-09T02:30:05;91393.38;;;15.84;72.90
70046;BME280;57385;41.832;23.494;2022-09-09T02:30:35;91387.91;;;15.80;72.81
70046;BME280;57385;41.832;23.494;2022-09-09T02:30:56;91374.41;;;15.73;73.09
70046;BME280;57385;41.832;23.494;2022-09-09T02:31:22;91401.41;;;15.87;73.53
70046;BME280;57385;41.832;23.494;2022-09-09T02:31:47;91375.69;;;15.76;73.06
70046;BME280;57385;41.832;23.494;2022-09-09T02:32:17;91379.56;;;15.73;73.38
70046;BME280;57385;41.832;23.494;2022-09-09T02:32:40;91390.50;;;15.80;73.20
70046;BME280;57385;41.832;23.494;2022-09-09T02:33:07;91394.69;;;15.86;73.15
70046;BME280;57385;41.832;23.494;2022-09-09T02:33:49;91403.47;;;15.85;73.28
70046;BME280;57385;41.832;23.494;2022-09-09T02:34:12;91405.53;;;15.83;73.04
70046;BME280;57385;41.832;23.494;2022-09-09T02:34:36;91389.63;;;15.69;73.24
70046;BME280;57385;41.832;23.494;2022-09-09T02:35:04;91394.06;;;15.74;73.03
70046;BME280;57385;41.832;23.494;2022-09-09T02:35:26;91381.59;;;15.66;73.27
70046;BME280;57385;41.832;23.494;2022-09-09T02:35:46;91381.63;;;15.71;73.17
70046;BME280;57385;41.832;23.494;2022-09-09T02:36:12;91384.72;;;15.73;72.93
70046;BME280;57385;41.832;23.494;2022-09-09T02:36:35;91378.25;;;15.70;73.10
70046;BME280;57385;41.832;23.494;2022-09-09T02:36:57;91404.75;;;15.83;72.74
70046;BME280;57385;41.832;23.494;2022-09-09T02:37:20;91396.19;;;15.77;72.71
70046;BME280;57385;41.832;23.494;2022-09-09T02:37:44;91402.41;;;15.81;72.81
70046;BME280;57385;41.832;23.494;2022-09-09T02:38:08;91398.53;;;15.84;72.63
70046;BME280;57385;41.832;23.494;2022-09-09T02:38:33;91396.75;;;15.84;72.67
70046;BME280;57385;41.832;23.494;2022-09-09T02:38:59;91394.41;;;15.83;72.49
70046;BME280;57385;41.832;23.494;2022-09-09T02:39:22;91395.72;;;15.85;72.49
70046;BME280;57385;41.832;23.494;2022-09-09T02:39:43;91379.88;;;15.77;72.45
70046;BME280;57385;41.832;23.494;2022-09-09T02:40:08;91404.50;;;15.84;72.38
70046;BME280;57385;41.832;23.494;2022-09-09T02:40:31;91393.63;;;15.82;72.68
70046;BME280;57385;41.832;23.494;2022-09-09T02:40:54;91391.56;;;15.84;72.64
70046;BME280;57385;41.832;23.494;2022-09-09T02:41:13;91400.59;;;15.82;73.40
70046;BME280;57385;41.832;23.494;2022-09-09T02:41:35;91402.94;;;15.83;73.22
70046;BME280;57385;41.832;23.494;2022-09-09T02:41:55;91397.53;;;15.85;72.71
70046;BME280;57385;41.832;23.494;2022-09-09T02:42:22;91386.84;;;15.76;73.12
70046;BME280;57385;41.832;23.494;2022-09-09T02:42:45;91384.50;;;15.75;72.72
70046;BME280;57385;41.832;23.494;2022-09-09T02:43:05;91394.66;;;15.81;72.82
70046;BME280;57385;41.832;23.494;2022-09-09T02:43:25;91373.31;;;15.69;72.94
70046;BME280;57385;41.832;23.494;2022-09-09T02:43:45;91388.19;;;15.84;72.98
70046;BME280;57385;41.832;23.494;2022-09-09T02:44:17;91376.44;;;15.71;72.99
70046;BME280;57385;41.832;23.494;2022-09-09T02:44:40;91396.47;;;15.81;72.64
70046;BME280;57385;41.832;23.494;2022-09-09T02:45:01;91390.75;;;15.79;72.75
70046;BME280;57385;41.832;23.494;2022-09-09T02:45:27;91393.63;;;15.82;72.75
70046;BME280;57385;41.832;23.494;2022-09-09T02:47:38;91394.41;;;15.83;72.58
70046;BME280;57385;41.832;23.494;2022-09-09T02:48:18;91393.63;;;15.82;72.62
70046;BME280;57385;41.832;23.494;2022-09-09T02:49:09;91393.63;;;15.82;72.57
70046;BME280;57385;41.832;23.494;2022-09-09T02:51:15;91392.56;;;15.78;72.35
70046;BME280;57385;41.832;23.494;2022-09-09T02:52:16;91391.03;;;15.82;72.51
70046;BME280;57385;41.832;23.494;2022-09-09T02:53:29;91393.88;;;15.81;72.24
70046;BME280;57385;41.832;23.494;2022-09-09T02:54:32;91387.66;;;15.82;72.13
70046;BME280;57385;41.832;23.494;2022-09-09T02:55:01;91381.91;;;15.75;72.33
70046;BME280;57385;41.832;23.494;2022-09-09T02:55:39;91382.47;;;15.77;72.32
70046;BME280;57385;41.832;23.494;2022-09-09T02:56:05;91384.81;;;15.78;72.26
70046;BME280;57385;41.832;23.494;2022-09-09T02:56:32;91368.69;;;15.71;72.31
70046;BME280;57385;41.832;23.494;2022-09-09T02:57:19;91391.53;;;15.79;72.40
70046;BME280;57385;41.832;23.494;2022-09-09T02:57:42;91391.53;;;15.79;72.13
70046;BME280;57385;41.832;23.494;2022-09-09T02:58:07;91386.28;;;15.74;72.21
70046;BME280;57385;41.832;23.494;2022-09-09T02:58:28;91386.28;;;15.74;72.50
70046;BME280;57385;41.832;23.494;2022-09-09T02:58:52;91385.22;;;15.70;72.27
70046;BME280;57385;41.832;23.494;2022-09-09T02:59:11;91387.06;;;15.75;72.44
70046;BME280;57385;41.832;23.494;2022-09-09T02:59:32;91386.28;;;15.74;72.43
70046;BME280;57385;41.832;23.494;2022-09-09T02:59:52;91381.63;;;15.71;72.26